sensor_id;sensor_type;location;lat;lon;timestamp;pressure;altitude;pressure_sealevel;temperature;humidity
12349;BME280;5974;42.710;27.258;2023-04-16T00:01:54;99945.72;;;13.03;100.00
12349;BME280;5974;42.710;27.258;2023-04-16T00:04:21;99956.28;;;13.34;100.00
12349;BME280;5974;42.710;27.258;2023-04-16T00:06:50;99953.41;;;13.39;100.00
12349;BME280;5974;42.710;27.258;2023-04-16T00:09:16;99947.63;;;13.32;100.00
12349;BME280;5974;42.710;27.258;2023-04-16T00:11:43;99959.25;;;13.28;100.00
12349;BME280;5974;42.710;27.258;2023-04-16T00:14:10;99955.09;;;13.24;100.00
12349;BME280;5974;42.710;27.258;2023-04-16T00:16:37;99961.28;;;13.39;100.00
12349;BME280;5974;42.710;27.258;2023-04-16T00:19:04;99951.53;;;13.25;100.00
12349;BME280;5974;42.710;27.258;2023-04-16T00:21:31;99955.44;;;13.49;100.00
12349;BME280;5974;42.710;27.258;2023-04-16T00:23:59;99947.72;;;13.15;100.00
12349;BME280;5974;42.710;27.258;2023-04-16T00:26:26;99955.09;;;13.24;100.00
12349;BME280;5974;42.710;27.258;2023-04-16T00:28:53;99959.91;;;13.16;100.00
12349;BME280;5974;42.710;27.258;2023-04-16T00:31:26;99951.56;;;13.08;100.00
12349;BME280;5974;42.710;27.258;2023-04-16T00:33:53;99962.31;;;13.03;100.00
12349;BME280;5974;42.710;27.258;2023-04-16T00:36:20;99958.09;;;12.84;100.00
12349;BME280;5974;42.710;27.258;2023-04-16T00:38:47;99969.03;;;13.09;100.00
12349;BME280;5974;42.710;27.258;2023-04-16T00:41:15;99964.22;;;13.17;100.00
12349;BME280;5974;42.710;27.258;2023-04-16T00:43:42;99964.53;;;13.11;100.00
12349;BME280;5974;42.710;27.258;2023-04-16T00:46:09;99962.72;;;13.29;100.00
12349;BME280;5974;42.710;27.258;2023-04-16T00:48:38;99961.78;;;12.97;100.00
12349;BME280;5974;42.710;27.258;2023-04-16T00:51:07;99971.09;;;13.02;100.00
12349;BME280;5974;42.710;27.258;2023-04-16T00:53:34;99959.53;;;13.07;100.00
12349;BME280;5974;42.710;27.258;2023-04-16T00:56:02;99967.97;;;13.29;100.00
12349;BME280;5974;42.710;27.258;2023-04-16T00:58:31;99975.25;;;13.39;100.00
12349;BME280;5974;42.710;27.258;2023-04-16T01:00:59;99964.44;;;13.77;100.00
12349;BME280;5974;42.710;27.258;2023-04-16T01:03:34;99960.94;;;13.92;100.00
12349;BME280;5974;42.710;27.258;2023-04-16T01:06:02;99950.63;;;14.03;100.00
12349;BME280;5974;42.710;27.258;2023-04-16T01:08:29;99945.88;;;14.09;100.00
12349;BME280;5974;42.710;27.258;2023-04-16T01:10:56;99945.97;;;14.08;100.00
12349;BME280;5974;42.710;27.258;2023-04-16T01:13:23;99942.56;;;14.06;100.00
12349;BME280;5974;42.710;27.258;2023-04-16T01:15:52;99943.00;;;14.14;100.00
12349;BME280;5974;42.710;27.258;2023-04-16T01:18:20;99936.88;;;14.13;100.00
12349;BME280;5974;42.710;27.258;2023-04-16T01:20:49;99941.34;;;13.82;100.00
12349;BME280;5974;42.710;27.258;2023-04-16T01:23:16;99938.69;;;13.97;100.00
12349;BME280;5974;42.710;27.258;2023-04-16T01:25:44;99941.72;;;14.21;100.00
12349;BME280;5974;42.710;27.258;2023-04-16T01:28:11;99927.91;;;14.47;100.00
12349;BME280;5974;42.710;27.258;2023-04-16T01:30:38;99936.44;;;13.60;100.00
12349;BME280;5974;42.710;27.258;2023-04-16T01:33:05;99936.97;;;13.51;100.00
12349;BME280;5974;42.710;27.258;2023-04-16T01:35:32;99937.09;;;13.95;100.00
12349;BME280;5974;42.710;27.258;2023-04-16T01:38:00;99926.22;;;14.31;100.00
12349;BME280;5974;42.710;27.258;2023-04-16T01:40:28;99899.38;;;13.96;100.00
12349;BME280;5974;42.710;27.258;2023-04-16T01:42:55;99915.69;;;13.87;100.00
12349;BME280;5974;42.710;27.258;2023-04-16T01:45:22;99914.81;;;14.16;100.00
12349;BME280;5974;42.710;27.258;2023-04-16T01:47:49;99905.50;;;14.10;100.00
12349;BME280;5974;42.710;27.258;2023-04-16T01:50:16;99905.59;;;13.79;100.00
12349;BME280;5974;42.710;27.258;2023-04-16T01:52:43;99906.50;;;13.78;100.00
12349;BME280;5974;42.710;27.258;2023-04-16T01:55:12;99901.81;;;13.99;100.00
12349;BME280;5974;42.710;27.258;2023-04-16T01:57:39;99901.03;;;13.97;100.00
12349;BME280;5974;42.710;27.258;2023-04-16T02:00:07;99904.03;;;13.91;100.00
12349;BME280;5974;42.710;27.258;2023-04-16T02:02:34;99904.22;;;13.88;100.00
12349;BME280;5974;42.710;27.258;2023-04-16T02:05:01;99876.53;;;13.67;100.00
12349;BME280;5974;42.710;27.258;2023-04-16T02:07:28;99900.59;;;13.90;100.00
12349;BME280;5974;42.710;27.258;2023-04-16T02:09:56;99895.59;;;13.70;100.00
12349;BME280;5974;42.710;27.258;2023-04-16T02:12:25;99901.22;;;13.48;100.00
12349;BME280;5974;42.710;27.258;2023-04-16T02:14:52;99896.72;;;13.50;100.00
12349;BME280;5974;42.710;27.258;2023-04-16T02:17:19;99902.41;;;13.43;100.00
12349;BME280;5974;42.710;27.258;2023-04-16T02:19:46;99896.66;;;13.36;100.00
12349;BME280;5974;42.710;27.258;2023-04-16T02:22:13;99900.38;;;13.32;100.00
12349;BME280;5974;42.710;27.258;2023-04-16T02:24:40;99902.56;;;13.24;100.00
12349;BME280;5974;42.710;27.258;2023-04-16T02:27:07;99904.28;;;12.92;100.00
12349;BME280;5974;42.710;27.258;2023-04-16T02:29:35;99911.44;;;12.73;100.00
12349;BME280;5974;42.710;27.258;2023-04-16T02:32:02;99915.09;;;12.86;100.00
12349;BME280;5974;42.710;27.258;2023-04-16T02:34:29;99911.31;;;12.92;100.00
12349;BME280;5974;42.710;27.258;2023-04-16T02:36:55;99911.53;;;12.72;100.00
12349;BME280;5974;42.710;27.258;2023-04-16T02:39:23;99912.28;;;12.74;100.00
12349;BME280;5974;42.710;27.258;2023-04-16T02:41:50;99904.34;;;12.75;100.00
12349;BME280;5974;42.710;27.258;2023-04-16T02:44:17;99916.97;;;12.84;100.00
12349;BME280;5974;42.710;27.258;2023-04-16T02:46:45;99915.88;;;12.88;100.00
12349;BME280;5974;42.710;27.258;2023-04-16T02:49:12;99914.78;;;12.92;100.00
12349;BME280;5974;42.710;27.258;2023-04-16T02:51:39;99923.22;;;12.82;100.00
12349;BME280;5974;42.710;27.258;2023-04-16T02:54:06;99921.53;;;12.81;100.00
12349;BME280;5974;42.710;27.258;2023-04-16T02:56:33;99915.03;;;12.88;100.00
12349;BME280;5974;42.710;27.258;2023-04-16T02:59:00;99925.03;;;12.97;100.00
12349;BME280;5974;42.710;27.258;2023-04-16T03:01:27;99917.63;;;12.72;100.00
12349;BME280;5974;42.710;27.258;2023-04-16T03:03:55;99912.97;;;12.27;100.00
12349;BME280;5974;42.710;27.258;2023-04-16T03:06:22;99873.97;;;11.32;100.00
12349;BME280;5974;42.710;27.258;2023-04-16T03:08:49;99915.88;;;11.87;100.00
12349;BME280;5974;42.710;27.258;2023-04-16T03:11:16;99927.13;;;12.06;100.00
12349;BME280;5974;42.710;27.258;2023-04-16T03:13:44;99923.91;;;12.18;100.00
12349;BME280;5974;42.710;27.258;2023-04-16T03:16:11;99919.72;;;11.97;100.00
12349;BME280;5974;42.710;27.258;2023-04-16T03:18:37;99924.66;;;12.03;100.00
12349;BME280;5974;42.710;27.258;2023-04-16T03:21:06;99922.22;;;12.52;100.00
12349;BME280;5974;42.710;27.258;2023-04-16T03:23:33;99924.72;;;12.70;100.00
12349;BME280;5974;42.710;27.258;2023-04-16T03:26:00;99921.38;;;12.84;100.00
12349;BME280;5974;42.710;27.258;2023-04-16T03:28:27;99917.09;;;12.66;100.00
12349;BME280;5974;42.710;27.258;2023-04-16T03:30:53;99910.06;;;12.66;100.00
12349;BME280;5974;42.710;27.258;2023-04-16T03:33:20;99921.72;;;12.61;100.00
12349;BME280;5974;42.710;27.258;2023-04-16T03:35:54;99927.94;;;12.42;100.00
12349;BME280;5974;42.710;27.258;2023-04-16T03:38:23;99922.25;;;12.67;100.00
12349;BME280;5974;42.710;27.258;2023-04-16T03:40:50;99934.16;;;12.90;100.00
12349;BME280;5974;42.710;27.258;2023-04-16T03:43:17;99934.00;;;12.93;100.00
12349;BME280;5974;42.710;27.258;2023-04-16T03:45:44;99930.63;;;12.91;100.00
12349;BME280;5974;42.710;27.258;2023-04-16T03:48:11;99934.06;;;13.09;100.00
12349;BME280;5974;42.710;27.258;2023-04-16T03:50:38;99926.44;;;13.20;100.00
12349;BME280;5974;42.710;27.258;2023-04-16T03:53:04;99940.75;;;13.14;100.00
12349;BME280;5974;42.710;27.258;2023-04-16T03:55:33;99933.00;;;13.28;100.00
12349;BME280;5974;42.710;27.258;2023-04-16T03:58:01;99937.31;;;13.45;100.00
12349;BME280;5974;42.710;27.258;2023-04-16T04:00:29;99937.13;;;13.64;100.00
12349;BME280;5974;42.710;27.258;2023-04-16T04:02:56;99925.19;;;13.74;100.00
12349;BME280;5974;42.710;27.258;2023-04-16T04:05:23;99927.13;;;13.54;100.00
12349;BME280;5974;42.710;27.258;2023-04-16T04:07:50;99921.38;;;13.48;100.00
12349;BME280;5974;42.710;27.258;2023-04-16T04:10:17;99944.59;;;13.71;100.00
12349;BME280;5974;42.710;27.258;2023-04-16T04:12:45;99923.56;;;13.87;100.00
12349;BME280;5974;42.710;27.258;2023-04-16T04:15:12;99920.47;;;13.94;100.00
12349;BME280;5974;42.710;27.258;2023-04-16T04:17:39;99914.31;;;13.80;100.00
12349;BME280;5974;42.710;27.258;2023-04-16T04:20:06;99920.75;;;13.90;100.00
12349;BME280;5974;42.710;27.258;2023-04-16T04:22:33;99915.47;;;14.05;100.00
12349;BME280;5974;42.710;27.258;2023-04-16T04:25:00;99924.34;;;14.03;100.00
12349;BME280;5974;42.710;27.258;2023-04-16T04:27:27;99932.31;;;14.31;100.00
12349;BME280;5974;42.710;27.258;2023-04-16T04:29:56;99924.34;;;14.77;100.00
12349;BME280;5974;42.710;27.258;2023-04-16T04:32:23;99915.50;;;15.20;100.00
12349;BME280;5974;42.710;27.258;2023-04-16T04:34:50;99906.31;;;15.13;100.00
12349;BME280;5974;42.710;27.258;2023-04-16T04:37:16;99897.53;;;15.27;100.00
12349;BME280;5974;42.710;27.258;2023-04-16T04:39:43;99894.56;;;15.45;100.00
12349;BME280;5974;42.710;27.258;2023-04-16T04:42:10;99895.56;;;15.71;100.00
12349;BME280;5974;42.710;27.258;2023-04-16T04:44:37;99889.97;;;16.02;100.00
12349;BME280;5974;42.710;27.258;2023-04-16T04:47:05;99877.53;;;16.17;100.00
12349;BME280;5974;42.710;27.258;2023-04-16T04:49:32;99877.88;;;16.38;100.00
12349;BME280;5974;42.710;27.258;2023-04-16T04:51:59;99874.00;;;16.56;100.00
12349;BME280;5974;42.710;27.258;2023-04-16T04:54:27;99866.91;;;16.82;100.00
12349;BME280;5974;42.710;27.258;2023-04-16T04:56:54;99870.88;;;17.12;100.00
12349;BME280;5974;42.710;27.258;2023-04-16T04:59:22;99863.84;;;17.60;100.00
12349;BME280;5974;42.710;27.258;2023-04-16T05:01:49;99860.50;;;18.28;100.00
12349;BME280;5974;42.710;27.258;2023-04-16T05:04:18;99862.19;;;18.29;100.00
12349;BME280;5974;42.710;27.258;2023-04-16T05:06:45;99864.63;;;17.97;100.00
12349;BME280;5974;42.710;27.258;2023-04-16T05:09:12;99857.41;;;18.45;100.00
12349;BME280;5974;42.710;27.258;2023-04-16T05:11:40;99853.59;;;18.71;100.00
12349;BME280;5974;42.710;27.258;2023-04-16T05:14:07;99846.28;;;19.62;100.00
12349;BME280;5974;42.710;27.258;2023-04-16T05:16:35;99828.00;;;21.90;100.00
12349;BME280;5974;42.710;27.258;2023-04-16T05:19:02;99827.50;;;22.89;100.00
12349;BME280;5974;42.710;27.258;2023-04-16T05:21:31;99823.63;;;22.28;100.00
12349;BME280;5974;42.710;27.258;2023-04-16T05:23:57;99829.03;;;21.21;100.00
12349;BME280;5974;42.710;27.258;2023-04-16T05:26:24;99837.41;;;20.05;100.00
12349;BME280;5974;42.710;27.258;2023-04-16T05:28:51;99835.00;;;20.43;100.00
12349;BME280;5974;42.710;27.258;2023-04-16T05:31:18;99838.84;;;20.09;100.00
12349;BME280;5974;42.710;27.258;2023-04-16T05:33:45;99835.00;;;19.38;100.00
12349;BME280;5974;42.710;27.258;2023-04-16T05:36:12;99833.47;;;19.67;100.00
12349;BME280;5974;42.710;27.258;2023-04-16T05:38:41;99828.97;;;20.20;100.00
12349;BME280;5974;42.710;27.258;2023-04-16T05:41:07;99819.00;;;21.72;100.00
12349;BME280;5974;42.710;27.258;2023-04-16T05:43:35;99814.56;;;21.92;100.00
12349;BME280;5974;42.710;27.258;2023-04-16T05:46:01;99816.03;;;21.18;100.00
12349;BME280;5974;42.710;27.258;2023-04-16T05:48:28;99823.34;;;20.95;100.00
12349;BME280;5974;42.710;27.258;2023-04-16T05:50:55;99825.56;;;20.90;100.00
12349;BME280;5974;42.710;27.258;2023-04-16T05:53:22;99820.16;;;22.18;100.00
12349;BME280;5974;42.710;27.258;2023-04-16T05:55:51;99819.88;;;21.82;100.00
12349;BME280;5974;42.710;27.258;2023-04-16T05:58:17;99821.97;;;21.79;100.00
12349;BME280;5974;42.710;27.258;2023-04-16T06:00:44;99816.16;;;22.41;100.00
12349;BME280;5974;42.710;27.258;2023-04-16T06:03:11;99816.38;;;21.91;100.00
12349;BME280;5974;42.710;27.258;2023-04-16T06:05:38;99817.31;;;21.42;100.00
12349;BME280;5974;42.710;27.258;2023-04-16T06:08:05;99823.38;;;21.04;100.00
12349;BME280;5974;42.710;27.258;2023-04-16T06:10:32;99825.16;;;20.54;100.00
12349;BME280;5974;42.710;27.258;2023-04-16T06:13:00;99815.66;;;20.31;100.00
12349;BME280;5974;42.710;27.258;2023-04-16T06:15:27;99819.56;;;19.75;100.00
12349;BME280;5974;42.710;27.258;2023-04-16T06:17:54;99820.09;;;20.10;100.00
12349;BME280;5974;42.710;27.258;2023-04-16T06:20:21;99819.50;;;19.86;100.00
12349;BME280;5974;42.710;27.258;2023-04-16T06:22:48;99818.41;;;19.57;100.00
12349;BME280;5974;42.710;27.258;2023-04-16T06:25:15;99822.63;;;19.16;100.00
12349;BME280;5974;42.710;27.258;2023-04-16T06:27:42;99829.41;;;19.52;100.00
12349;BME280;5974;42.710;27.258;2023-04-16T06:30:12;99827.78;;;19.72;100.00
12349;BME280;5974;42.710;27.258;2023-04-16T06:32:39;99830.88;;;19.56;100.00
12349;BME280;5974;42.710;27.258;2023-04-16T06:35:07;99829.69;;;19.49;100.00
12349;BME280;5974;42.710;27.258;2023-04-16T06:37:34;99830.22;;;19.64;100.00
12349;BME280;5974;42.710;27.258;2023-04-16T06:40:01;99829.47;;;19.93;100.00
12349;BME280;5974;42.710;27.258;2023-04-16T06:42:27;99831.75;;;20.19;100.00
12349;BME280;5974;42.710;27.258;2023-04-16T06:44:54;99838.72;;;19.35;100.00
12349;BME280;5974;42.710;27.258;2023-04-16T06:47:23;99843.72;;;19.61;100.00
12349;BME280;5974;42.710;27.258;2023-04-16T06:49:51;99836.81;;;20.01;100.00
12349;BME280;5974;42.710;27.258;2023-04-16T06:52:18;99833.41;;;19.78;100.00
12349;BME280;5974;42.710;27.258;2023-04-16T06:54:45;99842.00;;;20.23;100.00
12349;BME280;5974;42.710;27.258;2023-04-16T06:57:12;99833.38;;;21.12;100.00
12349;BME280;5974;42.710;27.258;2023-04-16T06:59:38;99832.03;;;21.37;100.00
12349;BME280;5974;42.710;27.258;2023-04-16T07:02:06;99816.47;;;22.75;100.00
12349;BME280;5974;42.710;27.258;2023-04-16T07:04:35;99787.06;;;21.62;100.00
12349;BME280;5974;42.710;27.258;2023-04-16T07:07:02;99817.75;;;21.57;100.00
12349;BME280;5974;42.710;27.258;2023-04-16T07:09:29;99814.66;;;22.19;100.00
12349;BME280;5974;42.710;27.258;2023-04-16T07:11:56;99810.94;;;22.86;100.00
12349;BME280;5974;42.710;27.258;2023-04-16T07:14:23;99814.97;;;22.72;100.00
12349;BME280;5974;42.710;27.258;2023-04-16T07:16:50;99816.06;;;22.79;97.95
12349;BME280;5974;42.710;27.258;2023-04-16T07:19:16;99816.22;;;22.68;97.73
12349;BME280;5974;42.710;27.258;2023-04-16T07:21:45;99815.72;;;23.19;95.75
12349;BME280;5974;42.710;27.258;2023-04-16T07:24:12;99815.34;;;25.13;86.71
12349;BME280;5974;42.710;27.258;2023-04-16T07:26:39;99792.44;;;23.74;85.49
12349;BME280;5974;42.710;27.258;2023-04-16T07:29:05;99810.91;;;22.95;86.29
12349;BME280;5974;42.710;27.258;2023-04-16T07:31:32;99813.81;;;22.75;88.79
12349;BME280;5974;42.710;27.258;2023-04-16T07:33:59;99820.09;;;23.10;92.07
12349;BME280;5974;42.710;27.258;2023-04-16T07:36:26;99818.53;;;22.90;95.07
12349;BME280;5974;42.710;27.258;2023-04-16T07:38:55;99814.66;;;22.29;94.77
12349;BME280;5974;42.710;27.258;2023-04-16T07:41:22;99822.50;;;21.25;97.35
12349;BME280;5974;42.710;27.258;2023-04-16T07:43:49;99806.84;;;21.41;100.00
12349;BME280;5974;42.710;27.258;2023-04-16T07:46:15;99778.53;;;22.07;100.00
12349;BME280;5974;42.710;27.258;2023-04-16T07:48:42;99803.41;;;23.53;97.25
12349;BME280;5974;42.710;27.258;2023-04-16T07:51:09;99801.44;;;23.73;92.95
12349;BME280;5974;42.710;27.258;2023-04-16T07:53:36;99793.50;;;24.07;91.82
12349;BME280;5974;42.710;27.258;2023-04-16T07:56:05;99790.91;;;23.71;88.90
12349;BME280;5974;42.710;27.258;2023-04-16T07:58:32;99792.78;;;24.14;92.52
12349;BME280;5974;42.710;27.258;2023-04-16T08:00:59;99792.16;;;23.32;91.84
12349;BME280;5974;42.710;27.258;2023-04-16T08:03:26;99789.41;;;22.79;88.58
12349;BME280;5974;42.710;27.258;2023-04-16T08:05:53;99788.44;;;23.25;90.94
12349;BME280;5974;42.710;27.258;2023-04-16T08:08:21;99794.56;;;23.08;89.69
12349;BME280;5974;42.710;27.258;2023-04-16T08:10:48;99788.94;;;23.56;91.67
12349;BME280;5974;42.710;27.258;2023-04-16T08:13:21;99785.94;;;22.59;91.60
12349;BME280;5974;42.710;27.258;2023-04-16T08:15:48;99796.06;;;23.10;92.74
12349;BME280;5974;42.710;27.258;2023-04-16T08:18:15;99778.03;;;24.10;85.00
12349;BME280;5974;42.710;27.258;2023-04-16T08:20:42;99790.56;;;23.92;86.53
12349;BME280;5974;42.710;27.258;2023-04-16T08:23:08;99790.19;;;24.31;85.79
12349;BME280;5974;42.710;27.258;2023-04-16T08:25:35;99789.53;;;23.50;85.20
12349;BME280;5974;42.710;27.258;2023-04-16T08:28:02;99789.09;;;23.27;86.85
12349;BME280;5974;42.710;27.258;2023-04-16T08:30:31;99794.34;;;23.64;87.43
12349;BME280;5974;42.710;27.258;2023-04-16T08:32:58;99794.25;;;23.73;85.93
12349;BME280;5974;42.710;27.258;2023-04-16T08:35:25;99802.56;;;24.32;85.08
12349;BME280;5974;42.710;27.258;2023-04-16T08:37:52;99810.97;;;23.40;84.87
12349;BME280;5974;42.710;27.258;2023-04-16T08:40:19;99818.69;;;22.42;92.45
12349;BME280;5974;42.710;27.258;2023-04-16T08:42:52;99832.06;;;21.94;95.98
12349;BME280;5974;42.710;27.258;2023-04-16T08:45:20;99867.28;;;20.38;96.85
12349;BME280;5974;42.710;27.258;2023-04-16T08:47:50;99883.16;;;19.65;93.20
12349;BME280;5974;42.710;27.258;2023-04-16T08:50:21;99888.31;;;18.79;100.00
12349;BME280;5974;42.710;27.258;2023-04-16T08:52:51;99884.41;;;17.80;100.00
12349;BME280;5974;42.710;27.258;2023-04-16T08:55:18;99905.34;;;17.47;100.00
12349;BME280;5974;42.710;27.258;2023-04-16T08:57:51;99908.25;;;17.68;100.00
12349;BME280;5974;42.710;27.258;2023-04-16T09:00:20;99894.53;;;17.14;100.00
12349;BME280;5974;42.710;27.258;2023-04-16T09:02:49;99900.31;;;16.83;100.00
12349;BME280;5974;42.710;27.258;2023-04-16T09:05:16;99902.44;;;17.14;100.00
12349;BME280;5974;42.710;27.258;2023-04-16T09:07:46;99883.50;;;18.38;100.00
12349;BME280;5974;42.710;27.258;2023-04-16T09:10:14;99870.19;;;19.83;100.00
12349;BME280;5974;42.710;27.258;2023-04-16T09:12:41;99870.69;;;20.50;100.00
12349;BME280;5974;42.710;27.258;2023-04-16T09:15:09;99857.13;;;21.73;100.00
12349;BME280;5974;42.710;27.258;2023-04-16T09:17:37;99849.69;;;21.38;98.39
12349;BME280;5974;42.710;27.258;2023-04-16T09:20:07;99823.38;;;21.04;100.00
12349;BME280;5974;42.710;27.258;2023-04-16T09:22:35;99840.19;;;21.74;96.64
12349;BME280;5974;42.710;27.258;2023-04-16T09:25:05;99827.00;;;21.62;98.40
12349;BME280;5974;42.710;27.258;2023-04-16T09:27:32;99836.75;;;22.48;93.08
12349;BME280;5974;42.710;27.258;2023-04-16T09:29:59;99833.47;;;22.18;89.07
12349;BME280;5974;42.710;27.258;2023-04-16T09:32:27;99834.44;;;21.49;88.48
12349;BME280;5974;42.710;27.258;2023-04-16T09:34:55;99842.78;;;20.95;85.73
12349;BME280;5974;42.710;27.258;2023-04-16T09:37:24;99839.66;;;20.81;90.91
12349;BME280;5974;42.710;27.258;2023-04-16T09:39:53;99824.16;;;21.26;91.34
12349;BME280;5974;42.710;27.258;2023-04-16T09:42:22;99849.94;;;21.04;90.91
12349;BME280;5974;42.710;27.258;2023-04-16T09:44:50;99838.63;;;21.61;87.16
12349;BME280;5974;42.710;27.258;2023-04-16T09:47:17;99838.47;;;21.53;83.73
12349;BME280;5974;42.710;27.258;2023-04-16T09:49:44;99836.69;;;20.74;88.75
12349;BME280;5974;42.710;27.258;2023-04-16T09:52:15;99828.53;;;21.46;86.56
12349;BME280;5974;42.710;27.258;2023-04-16T09:54:47;99820.69;;;22.21;86.92
12349;BME280;5974;42.710;27.258;2023-04-16T09:57:17;99821.38;;;21.37;85.26
12349;BME280;5974;42.710;27.258;2023-04-16T09:59:46;99822.63;;;21.33;90.45
12349;BME280;5974;42.710;27.258;2023-04-16T10:02:13;99813.56;;;21.54;86.32
12349;BME280;5974;42.710;27.258;2023-04-16T10:04:50;99821.38;;;20.57;89.26
12349;BME280;5974;42.710;27.258;2023-04-16T10:07:18;99816.09;;;19.95;98.25
12349;BME280;5974;42.710;27.258;2023-04-16T10:09:47;99808.41;;;20.64;95.31
12349;BME280;5974;42.710;27.258;2023-04-16T10:12:14;99802.53;;;20.60;96.58
12349;BME280;5974;42.710;27.258;2023-04-16T10:14:42;99796.56;;;19.96;93.49
12349;BME280;5974;42.710;27.258;2023-04-16T10:17:09;99801.00;;;20.16;97.21
12349;BME280;5974;42.710;27.258;2023-04-16T10:19:36;99792.84;;;20.99;97.63
12349;BME280;5974;42.710;27.258;2023-04-16T10:22:03;99792.94;;;21.18;98.86
12349;BME280;5974;42.710;27.258;2023-04-16T10:24:32;99796.88;;;21.81;95.99
12349;BME280;5974;42.710;27.258;2023-04-16T10:27:00;99790.69;;;21.14;92.17
12349;BME280;5974;42.710;27.258;2023-04-16T10:29:29;99791.44;;;21.73;89.37
12349;BME280;5974;42.710;27.258;2023-04-16T10:31:57;99791.53;;;21.24;88.79
12349;BME280;5974;42.710;27.258;2023-04-16T10:34:25;99796.56;;;21.17;92.33
12349;BME280;5974;42.710;27.258;2023-04-16T10:36:54;99810.38;;;20.71;91.33
12349;BME280;5974;42.710;27.258;2023-04-16T10:39:22;99779.09;;;20.44;89.78
12349;BME280;5974;42.710;27.258;2023-04-16T10:41:49;99823.41;;;20.02;93.10
12349;BME280;5974;42.710;27.258;2023-04-16T10:44:18;99837.78;;;19.14;98.59
12349;BME280;5974;42.710;27.258;2023-04-16T10:46:46;99838.53;;;19.16;100.00
12349;BME280;5974;42.710;27.258;2023-04-16T10:49:16;99861.06;;;18.66;100.00
12349;BME280;5974;42.710;27.258;2023-04-16T10:51:52;99878.06;;;18.75;100.00
12349;BME280;5974;42.710;27.258;2023-04-16T10:54:22;99917.09;;;17.43;100.00
12349;BME280;5974;42.710;27.258;2023-04-16T10:56:51;99915.44;;;17.17;100.00
12349;BME280;5974;42.710;27.258;2023-04-16T10:59:21;99931.19;;;16.30;100.00
12349;BME280;5974;42.710;27.258;2023-04-16T11:01:50;99939.38;;;16.90;100.00
12349;BME280;5974;42.710;27.258;2023-04-16T11:04:34;99941.56;;;16.58;100.00
12349;BME280;5974;42.710;27.258;2023-04-16T11:07:03;99937.72;;;16.50;100.00
12349;BME280;5974;42.710;27.258;2023-04-16T11:09:50;99961.75;;;16.20;100.00
12349;BME280;5974;42.710;27.258;2023-04-16T11:12:18;99978.41;;;15.67;100.00
12349;BME280;5974;42.710;27.258;2023-04-16T11:14:48;99992.44;;;15.39;100.00
12349;BME280;5974;42.710;27.258;2023-04-16T11:17:16;100008.97;;;15.41;100.00
12349;BME280;5974;42.710;27.258;2023-04-16T11:19:43;100029.16;;;15.56;100.00
12349;BME280;5974;42.710;27.258;2023-04-16T11:22:15;100005.25;;;15.31;100.00
12349;BME280;5974;42.710;27.258;2023-04-16T11:24:43;99993.38;;;15.24;100.00
12349;BME280;5974;42.710;27.258;2023-04-16T11:27:11;99978.22;;;15.13;100.00
12349;BME280;5974;42.710;27.258;2023-04-16T11:29:38;99969.28;;;16.39;100.00
12349;BME280;5974;42.710;27.258;2023-04-16T11:32:07;99946.44;;;17.02;100.00
12349;BME280;5974;42.710;27.258;2023-04-16T11:34:41;99892.59;;;16.67;100.00
12349;BME280;5974;42.710;27.258;2023-04-16T11:37:08;99894.25;;;16.80;100.00
12349;BME280;5974;42.710;27.258;2023-04-16T11:39:46;99887.78;;;16.34;100.00
12349;BME280;5974;42.710;27.258;2023-04-16T11:42:18;99882.84;;;16.42;100.00
12349;BME280;5974;42.710;27.258;2023-04-16T11:44:45;99893.00;;;16.73;100.00
12349;BME280;5974;42.710;27.258;2023-04-16T11:47:13;99867.84;;;16.93;100.00
12349;BME280;5974;42.710;27.258;2023-04-16T11:49:40;99846.84;;;17.28;100.00
12349;BME280;5974;42.710;27.258;2023-04-16T11:52:07;99830.41;;;17.12;100.00
12349;BME280;5974;42.710;27.258;2023-04-16T11:54:34;99832.78;;;16.28;100.00
12349;BME280;5974;42.710;27.258;2023-04-16T11:57:02;99844.34;;;15.88;100.00
12349;BME280;5974;42.710;27.258;2023-04-16T11:59:29;99859.03;;;15.92;100.00
12349;BME280;5974;42.710;27.258;2023-04-16T12:01:57;99860.22;;;16.13;100.00
12349;BME280;5974;42.710;27.258;2023-04-16T12:04:26;99812.69;;;15.88;100.00
12349;BME280;5974;42.710;27.258;2023-04-16T12:07:10;99862.97;;;16.37;100.00
12349;BME280;5974;42.710;27.258;2023-04-16T12:09:38;99858.75;;;16.34;100.00
12349;BME280;5974;42.710;27.258;2023-04-16T12:12:23;99866.59;;;16.73;100.00
12349;BME280;5974;42.710;27.258;2023-04-16T12:14:51;99863.44;;;16.56;100.00
12349;BME280;5974;42.710;27.258;2023-04-16T12:17:19;99823.09;;;17.39;100.00
12349;BME280;5974;42.710;27.258;2023-04-16T12:19:51;99792.91;;;17.07;100.00
12349;BME280;5974;42.710;27.258;2023-04-16T12:22:26;99791.38;;;17.39;100.00
12349;BME280;5974;42.710;27.258;2023-04-16T12:24:55;99795.06;;;17.25;100.00
12349;BME280;5974;42.710;27.258;2023-04-16T12:27:23;99780.81;;;17.39;100.00
12349;BME280;5974;42.710;27.258;2023-04-16T12:30:02;99765.78;;;18.09;100.00
12349;BME280;5974;42.710;27.258;2023-04-16T12:32:29;99728.72;;;18.87;100.00
12349;BME280;5974;42.710;27.258;2023-04-16T12:34:58;99718.09;;;19.30;100.00
12349;BME280;5974;42.710;27.258;2023-04-16T12:37:25;99717.91;;;18.79;100.00
12349;BME280;5974;42.710;27.258;2023-04-16T12:39:52;99714.00;;;19.26;100.00
12349;BME280;5974;42.710;27.258;2023-04-16T12:42:19;99720.13;;;19.06;100.00
12349;BME280;5974;42.710;27.258;2023-04-16T12:44:46;99723.66;;;19.27;100.00
12349;BME280;5974;42.710;27.258;2023-04-16T12:47:13;99721.97;;;18.83;100.00
12349;BME280;5974;42.710;27.258;2023-04-16T12:49:40;99723.81;;;19.14;100.00
12349;BME280;5974;42.710;27.258;2023-04-16T12:52:08;99721.59;;;19.30;100.00
12349;BME280;5974;42.710;27.258;2023-04-16T12:54:35;99729.63;;;19.72;100.00
12349;BME280;5974;42.710;27.258;2023-04-16T12:57:01;99716.59;;;19.89;100.00